createdAt,value
2023-05-05T00:02:20.129Z,46.92
2023-05-05T00:04:47.826Z,47.32
2023-05-05T00:07:15.237Z,47.64
2023-05-05T00:09:43.004Z,47.88
2023-05-05T00:12:10.675Z,47.81
2023-05-05T00:14:38.043Z,48.11
2023-05-05T00:17:05.567Z,48.21
2023-05-05T00:19:33.372Z,48.26
2023-05-05T00:22:00.934Z,48.45
2023-05-05T00:24:28.353Z,48.52
2023-05-05T00:26:56.035Z,48.43
2023-05-05T00:29:23.525Z,48.56
2023-05-05T00:31:52.193Z,48.83
2023-05-05T00:34:20.611Z,48.71
2023-05-05T00:36:48.459Z,48.85
2023-05-05T00:39:16.373Z,48.98
2023-05-05T00:41:44.079Z,49.08
2023-05-05T00:44:11.585Z,49.44
2023-05-05T00:46:40.491Z,49.16
2023-05-05T00:49:08.402Z,49.54
2023-05-05T00:51:35.835Z,49.48
2023-05-05T00:54:03.273Z,49.21
2023-05-05T00:56:31.302Z,49.31
2023-05-05T00:58:59.179Z,49.29
2023-05-05T01:01:27.278Z,49.53
2023-05-05T01:03:55.548Z,49.35
2023-05-05T01:06:41.279Z,49.77
2023-05-05T01:09:10.563Z,49.96
2023-05-05T01:11:45.574Z,49.58
2023-05-05T01:14:16.694Z,49.52
2023-05-05T01:16:53.745Z,49.91
2023-05-05T01:19:51.200Z,49.96
2023-05-05T01:22:20.836Z,49.88
2023-05-05T01:25:31.621Z,50.21
2023-05-05T01:28:27.054Z,49.86
2023-05-05T01:31:03.606Z,50.17
2023-05-05T01:33:38.918Z,50.59
2023-05-05T01:36:22.679Z,50.26
2023-05-05T01:38:56.663Z,50.35
2023-05-05T01:41:33.765Z,50.43
2023-05-05T01:44:03.373Z,50.68
2023-05-05T01:46:33.379Z,50.72
2023-05-05T01:49:00.958Z,50.79
2023-05-05T01:51:28.744Z,50.74
2023-05-05T01:54:01.849Z,50.96
2023-05-05T01:56:30.516Z,51.15
2023-05-05T01:58:59.197Z,51.35
2023-05-05T02:01:27.278Z,51.61
2023-05-05T02:03:58.936Z,51.55
2023-05-05T02:06:28.270Z,51.38
2023-05-05T02:08:58.340Z,51.51
2023-05-05T02:11:27.006Z,51.65
2023-05-05T02:13:54.934Z,51.97
2023-05-05T02:16:22.807Z,52.17
2023-05-05T02:18:50.378Z,52.49
2023-05-05T02:21:18.156Z,52.60
2023-05-05T02:23:47.133Z,52.59
2023-05-05T02:26:15.983Z,52.48
2023-05-05T02:29:07.895Z,52.67
2023-05-05T02:31:39.691Z,53.03
2023-05-05T02:34:07.828Z,53.17
2023-05-05T02:36:38.690Z,53.16
2023-05-05T02:39:37.045Z,53.36
2023-05-05T02:42:06.017Z,53.67
2023-05-05T02:44:33.679Z,53.93
2023-05-05T02:47:03.900Z,54.08
2023-05-05T02:49:32.328Z,54.35
2023-05-05T02:52:00.975Z,54.38
2023-05-05T02:54:31.387Z,54.37
2023-05-05T02:56:59.913Z,54.41
2023-05-05T02:59:36.768Z,54.58
2023-05-05T03:02:35.943Z,54.46
2023-05-05T03:05:38.223Z,54.31
2023-05-05T03:08:23.995Z,54.32
2023-05-05T03:11:01.704Z,54.47
2023-05-05T03:13:30.106Z,54.86
2023-05-05T03:15:58.541Z,54.99
2023-05-05T03:18:27.490Z,55.04
2023-05-05T03:20:55.893Z,54.91
2023-05-05T03:23:23.743Z,54.94
2023-05-05T03:25:51.956Z,54.80
2023-05-05T03:28:20.384Z,55.26
2023-05-05T03:30:47.839Z,54.67
2023-05-05T03:33:15.965Z,54.47
2023-05-05T03:35:43.723Z,54.68
2023-05-05T03:38:11.483Z,54.91
2023-05-05T03:40:44.061Z,55.10
2023-05-05T03:43:13.419Z,55.41
2023-05-05T03:45:40.910Z,55.13
2023-05-05T03:48:09.749Z,54.96
2023-05-05T03:50:38.602Z,55.24
2023-05-05T03:53:06.274Z,55.45
2023-05-05T03:55:33.835Z,55.52
2023-05-05T03:58:01.570Z,55.54
2023-05-05T04:00:28.994Z,55.34
2023-05-05T04:02:56.795Z,55.10
2023-05-05T04:05:24.464Z,55.19
2023-05-05T04:07:51.886Z,55.30
2023-05-05T04:10:19.621Z,55.51
2023-05-05T04:12:46.972Z,54.94
2023-05-05T04:15:14.512Z,55.04
2023-05-05T04:17:42.841Z,55.15
2023-05-05T04:20:10.663Z,54.59
2023-05-05T04:22:38.594Z,54.68
2023-05-05T04:25:06.760Z,55.30
2023-05-05T04:27:34.213Z,55.40
2023-05-05T04:30:02.201Z,55.51
2023-05-05T04:32:31.675Z,55.29
2023-05-05T04:34:59.162Z,55.49
2023-05-05T04:37:26.779Z,55.58
2023-05-05T04:39:54.462Z,55.17
2023-05-05T04:42:22.099Z,55.43
2023-05-05T04:44:50.117Z,55.74
2023-05-05T04:47:17.978Z,55.27
2023-05-05T04:49:45.755Z,54.86
2023-05-05T04:52:13.921Z,54.88
2023-05-05T04:54:41.743Z,54.82
2023-05-05T04:57:09.166Z,54.78
2023-05-05T04:59:36.708Z,54.61
2023-05-05T05:02:04.709Z,54.59
2023-05-05T05:04:32.200Z,54.24
2023-05-05T05:06:59.572Z,54.13
2023-05-05T05:09:27.389Z,54.08
2023-05-05T05:11:59.178Z,53.44
2023-05-05T05:14:28.193Z,53.73
2023-05-05T05:16:55.833Z,53.37
2023-05-05T05:19:23.476Z,52.90
2023-05-05T05:21:51.272Z,52.98
2023-05-05T05:24:18.756Z,53.06
2023-05-05T05:26:46.341Z,52.88
2023-05-05T05:29:14.223Z,51.59
2023-05-05T05:31:41.873Z,52.03
2023-05-05T05:34:12.055Z,52.74
2023-05-05T05:36:40.847Z,52.04
2023-05-05T05:39:08.371Z,51.52
2023-05-05T05:41:35.879Z,49.28
2023-05-05T05:44:03.935Z,50.29
2023-05-05T05:46:31.568Z,50.83
2023-05-05T05:48:59.028Z,47.52
2023-05-05T05:51:26.753Z,44.90
2023-05-05T05:53:55.097Z,43.63
2023-05-05T05:56:24.009Z,43.40
2023-05-05T05:58:52.189Z,41.85
2023-05-05T06:01:19.881Z,41.50
2023-05-05T06:03:48.195Z,40.86
2023-05-05T06:06:16.110Z,40.48
2023-05-05T06:08:44.630Z,40.32
2023-05-05T06:11:12.341Z,39.63
2023-05-05T06:13:40.041Z,39.66
2023-05-05T06:16:08.066Z,39.65
2023-05-05T06:18:36.861Z,38.95
2023-05-05T06:21:04.416Z,38.53
2023-05-05T06:23:32.099Z,37.47
2023-05-05T06:25:59.928Z,37.54
2023-05-05T06:28:27.361Z,37.11
2023-05-05T06:30:54.707Z,36.96
2023-05-05T06:33:22.417Z,37.56
2023-05-05T06:35:51.876Z,37.63
2023-05-05T06:38:19.227Z,37.11
2023-05-05T06:40:50.172Z,36.38
2023-05-05T06:43:17.731Z,36.70
2023-05-05T06:45:45.927Z,36.05
2023-05-05T06:48:13.777Z,35.57
2023-05-05T06:50:41.214Z,36.08
2023-05-05T06:53:08.596Z,34.58
2023-05-05T06:55:36.374Z,34.77
2023-05-05T06:58:03.769Z,34.84
2023-05-05T07:00:31.213Z,34.31
2023-05-05T07:02:58.942Z,34.25
2023-05-05T07:05:26.376Z,34.13
2023-05-05T07:07:54.714Z,34.19
2023-05-05T07:10:23.529Z,33.82
2023-05-05T07:12:51.781Z,33.48
2023-05-05T07:15:27.686Z,33.33
2023-05-05T07:17:57.595Z,33.36
2023-05-05T07:20:25.396Z,32.76
2023-05-05T07:22:52.785Z,33.36
2023-05-05T07:25:21.012Z,32.80
2023-05-05T07:27:48.646Z,33.46
2023-05-05T07:30:18.382Z,33.13
2023-05-05T07:32:47.031Z,32.85
2023-05-05T07:35:14.796Z,32.57
2023-05-05T07:37:42.220Z,32.38
2023-05-05T07:40:10.442Z,32.43
2023-05-05T07:42:38.078Z,32.06
2023-05-05T07:45:06.860Z,31.80
2023-05-05T07:47:34.716Z,32.05
2023-05-05T07:50:02.400Z,32.05
2023-05-05T07:52:44.234Z,32.17
2023-05-05T07:55:14.082Z,32.06
2023-05-05T07:57:41.538Z,32.15
2023-05-05T08:00:10.847Z,32.21
2023-05-05T08:02:39.800Z,32.25
2023-05-05T08:05:08.208Z,32.37
2023-05-05T08:07:38.154Z,32.25
2023-05-05T08:10:06.090Z,33.57
2023-05-05T08:12:33.866Z,32.60
2023-05-05T08:15:01.425Z,32.81
2023-05-05T08:17:28.933Z,32.41
2023-05-05T08:19:56.626Z,31.97
2023-05-05T08:22:23.978Z,32.31
2023-05-05T08:24:51.576Z,33.53
2023-05-05T08:27:19.407Z,33.32
2023-05-05T08:29:46.837Z,32.98
2023-05-05T08:32:16.182Z,32.92
2023-05-05T08:34:43.823Z,32.80
2023-05-05T08:37:11.365Z,32.41
2023-05-05T08:39:38.823Z,32.31
2023-05-05T08:42:06.709Z,32.49
2023-05-05T08:44:34.126Z,32.45
2023-05-05T08:47:02.241Z,33.87
2023-05-05T08:49:33.846Z,33.03
2023-05-05T08:52:02.828Z,33.53
2023-05-05T08:54:34.119Z,33.63
2023-05-05T08:57:02.521Z,32.82
2023-05-05T08:59:32.810Z,33.17
2023-05-05T09:02:00.403Z,33.04
2023-05-05T09:04:27.885Z,32.29
2023-05-05T09:06:58.322Z,33.26
2023-05-05T09:09:26.322Z,34.58
2023-05-05T09:11:53.899Z,35.64
2023-05-05T09:14:21.639Z,33.99
2023-05-05T09:17:07.253Z,33.30
2023-05-05T09:19:55.420Z,33.53
2023-05-05T09:22:44.056Z,32.67
2023-05-05T09:25:14.259Z,33.23
2023-05-05T09:27:43.729Z,33.18
2023-05-05T09:30:14.600Z,33.07
2023-05-05T09:32:50.632Z,32.80
2023-05-05T09:35:19.005Z,32.31
2023-05-05T09:37:47.320Z,32.09
2023-05-05T09:40:16.995Z,32.29
2023-05-05T09:42:44.937Z,31.97
2023-05-05T09:45:18.740Z,31.43
2023-05-05T09:47:47.280Z,31.79
2023-05-05T09:50:18.532Z,31.71
2023-05-05T09:53:00.662Z,31.61
2023-05-05T09:55:29.254Z,31.62
2023-05-05T09:57:56.907Z,31.36
2023-05-05T10:00:37.729Z,31.65
2023-05-05T10:03:05.469Z,30.84
2023-05-05T10:05:32.965Z,31.54
2023-05-05T10:08:13.543Z,30.94
2023-05-05T10:10:49.197Z,30.81
2023-05-05T10:13:19.173Z,31.74
2023-05-05T10:15:49.884Z,31.63
2023-05-05T10:18:25.231Z,31.41
2023-05-05T10:21:00.559Z,31.82
2023-05-05T10:23:50.392Z,31.89
2023-05-05T10:26:19.672Z,31.61
2023-05-05T10:28:52.226Z,31.96
2023-05-05T10:31:33.253Z,31.36
2023-05-05T10:34:04.194Z,30.49
2023-05-05T10:36:32.357Z,29.69
2023-05-05T10:39:00.479Z,30.36
2023-05-05T10:41:28.734Z,29.99
2023-05-05T10:44:00.414Z,30.43
2023-05-05T10:46:29.560Z,29.96
2023-05-05T10:49:06.592Z,30.40
2023-05-05T10:51:40.962Z,30.75
2023-05-05T10:54:33.010Z,29.41
2023-05-05T10:57:04.794Z,29.79
2023-05-05T10:59:39.253Z,29.82
2023-05-05T11:02:29.633Z,29.81
2023-05-05T11:05:31.592Z,29.50
2023-05-05T11:08:25.103Z,29.48
2023-05-05T11:10:52.761Z,28.67
2023-05-05T11:13:21.235Z,28.27
2023-05-05T11:15:50.200Z,28.74
2023-05-05T11:18:38.017Z,29.15
2023-05-05T11:21:07.644Z,28.69
2023-05-05T11:23:35.361Z,29.05
2023-05-05T11:26:03.090Z,28.56
2023-05-05T11:28:31.510Z,28.82
2023-05-05T11:31:16.297Z,28.76
2023-05-05T11:33:43.704Z,29.49
2023-05-05T11:36:15.952Z,29.68
2023-05-05T11:38:55.635Z,29.04
2023-05-05T11:41:32.488Z,28.43
2023-05-05T11:44:13.955Z,28.31
2023-05-05T11:47:04.470Z,28.49
2023-05-05T11:49:36.590Z,28.69
2023-05-05T11:52:14.400Z,28.25
2023-05-05T11:54:48.074Z,29.42
2023-05-05T11:57:17.616Z,28.59
2023-05-05T11:59:55.061Z,28.03
2023-05-05T12:02:23.704Z,28.08
2023-05-05T12:04:52.827Z,28.39
2023-05-05T12:07:23.172Z,28.31
2023-05-05T12:09:51.294Z,28.14
2023-05-05T12:12:18.854Z,28.23
2023-05-05T12:14:52.430Z,28.06
2023-05-05T12:17:21.343Z,28.50
2023-05-05T12:19:53.202Z,28.00
2023-05-05T12:22:25.495Z,28.31
2023-05-05T12:24:58.290Z,28.01
2023-05-05T12:27:27.007Z,28.82
2023-05-05T12:29:56.136Z,28.75
2023-05-05T12:32:25.781Z,29.17
2023-05-05T12:34:56.193Z,28.96
2023-05-05T12:37:25.138Z,28.50
2023-05-05T12:39:55.038Z,28.66
2023-05-05T12:42:22.634Z,28.95
2023-05-05T12:44:50.090Z,28.59
2023-05-05T12:47:44.859Z,28.52
2023-05-05T12:50:12.514Z,28.52
2023-05-05T12:52:44.627Z,28.46
2023-05-05T12:55:12.811Z,28.49
2023-05-05T12:58:00.800Z,28.36
2023-05-05T13:00:29.214Z,29.11
2023-05-05T13:02:57.577Z,28.89
2023-05-05T13:05:36.544Z,28.65
2023-05-05T13:08:04.543Z,28.94
2023-05-05T13:10:32.008Z,29.44
2023-05-05T13:12:59.505Z,29.92
2023-05-05T13:15:27.894Z,29.46
2023-05-05T13:18:00.431Z,29.10
2023-05-05T13:20:28.177Z,29.44
2023-05-05T13:22:55.591Z,29.50
2023-05-05T13:25:22.977Z,29.66
2023-05-05T13:27:50.657Z,29.57
2023-05-05T13:30:18.081Z,29.20
2023-05-05T13:32:45.557Z,29.46
2023-05-05T13:35:16.010Z,29.20
2023-05-05T13:37:45.953Z,28.85
2023-05-05T13:40:13.782Z,28.96
2023-05-05T13:42:41.134Z,29.28
2023-05-05T13:45:09.151Z,29.69
2023-05-05T13:47:37.089Z,29.12
2023-05-05T13:50:04.858Z,29.34
2023-05-05T13:52:33.313Z,29.03
2023-05-05T13:55:01.347Z,29.52
2023-05-05T13:57:29.058Z,29.74
2023-05-05T13:59:57.096Z,29.26
2023-05-05T14:02:25.061Z,29.54
2023-05-05T14:04:52.774Z,28.63
2023-05-05T14:07:20.172Z,29.41
2023-05-05T14:09:47.590Z,29.36
2023-05-05T14:12:15.374Z,29.55
2023-05-05T14:14:42.748Z,29.92
2023-05-05T14:17:10.246Z,29.60
2023-05-05T14:19:37.964Z,28.97
2023-05-05T14:22:05.526Z,29.16
2023-05-05T14:24:32.943Z,28.85
2023-05-05T14:27:00.710Z,28.77
2023-05-05T14:29:28.077Z,28.69
2023-05-05T14:31:55.766Z,28.55
2023-05-05T14:34:23.561Z,29.26
2023-05-05T14:36:50.952Z,28.75
2023-05-05T14:39:18.340Z,27.96
2023-05-05T14:41:46.565Z,28.28
2023-05-05T14:44:14.058Z,27.79
2023-05-05T14:46:42.588Z,28.48
2023-05-05T14:49:11.786Z,28.41
2023-05-05T14:51:39.199Z,29.11
2023-05-05T14:54:14.281Z,29.22
2023-05-05T14:56:48.264Z,29.13
2023-05-05T14:59:15.682Z,29.17
2023-05-05T15:01:43.113Z,29.31
2023-05-05T15:04:10.841Z,28.89
2023-05-05T15:06:38.307Z,28.92
2023-05-05T15:09:05.720Z,29.21
2023-05-05T15:11:33.432Z,29.17
2023-05-05T15:14:00.855Z,28.87
2023-05-05T15:16:28.353Z,29.10
2023-05-05T15:18:56.702Z,28.93
2023-05-05T15:21:24.116Z,28.73
2023-05-05T15:23:51.535Z,29.17
2023-05-05T15:26:19.184Z,29.12
2023-05-05T15:28:48.275Z,29.48
2023-05-05T15:31:17.625Z,29.31
2023-05-05T15:33:48.405Z,28.73
2023-05-05T15:36:17.500Z,29.02
2023-05-05T15:38:45.219Z,29.28
2023-05-05T15:41:12.660Z,29.22
2023-05-05T15:43:40.107Z,29.23
2023-05-05T15:46:07.810Z,29.37
2023-05-05T15:48:35.679Z,29.67
2023-05-05T15:51:03.396Z,29.12
2023-05-05T15:53:31.161Z,29.01
2023-05-05T15:55:58.623Z,29.00
2023-05-05T15:58:26.177Z,29.10
2023-05-05T16:00:53.871Z,29.29
2023-05-05T16:03:21.712Z,28.60
2023-05-05T16:05:49.208Z,28.89
2023-05-05T16:08:16.656Z,28.75
2023-05-05T16:10:44.507Z,28.77
2023-05-05T16:13:11.975Z,28.85
2023-05-05T16:15:39.450Z,28.80
2023-05-05T16:18:07.229Z,28.56
2023-05-05T16:20:34.634Z,28.87
2023-05-05T16:23:02.008Z,28.98
2023-05-05T16:25:29.671Z,28.94
2023-05-05T16:27:57.492Z,28.57
2023-05-05T16:30:24.847Z,28.66
2023-05-05T16:32:54.283Z,29.05
2023-05-05T16:35:22.986Z,29.09
2023-05-05T16:37:50.494Z,28.72
2023-05-05T16:40:18.371Z,28.52
2023-05-05T16:42:45.904Z,28.49
2023-05-05T16:45:13.345Z,28.42
2023-05-05T16:47:41.099Z,28.29
2023-05-05T16:50:09.093Z,28.44
2023-05-05T16:52:36.678Z,28.85
2023-05-05T16:55:04.876Z,28.87
2023-05-05T16:57:32.310Z,28.90
2023-05-05T16:59:59.788Z,29.09
2023-05-05T17:02:27.514Z,29.18
2023-05-05T17:04:54.988Z,28.83
2023-05-05T17:07:22.413Z,28.73
2023-05-05T17:09:50.087Z,29.02
2023-05-05T17:12:17.578Z,29.38
2023-05-05T17:14:48.016Z,29.44
2023-05-05T17:17:15.776Z,29.55
2023-05-05T17:19:43.231Z,29.46
2023-05-05T17:22:10.593Z,29.69
2023-05-05T17:24:38.384Z,30.05
2023-05-05T17:27:06.036Z,29.77
2023-05-05T17:29:36.807Z,29.90
2023-05-05T17:32:04.702Z,29.88
2023-05-05T17:34:32.097Z,30.04
2023-05-05T17:36:59.505Z,30.73
2023-05-05T17:39:27.233Z,31.48
2023-05-05T17:41:54.667Z,32.18
2023-05-05T17:44:22.134Z,32.27
2023-05-05T17:46:49.863Z,32.42
2023-05-05T17:49:17.264Z,32.54
2023-05-05T17:51:44.629Z,32.94
2023-05-05T17:54:12.345Z,32.97
2023-05-05T17:56:39.900Z,33.20
2023-05-05T17:59:07.435Z,33.40
2023-05-05T18:01:35.134Z,33.40
2023-05-05T18:04:02.936Z,33.95
2023-05-05T18:06:30.337Z,34.42
2023-05-05T18:08:58.051Z,34.45
2023-05-05T18:13:55.827Z,35.31
2023-05-05T18:16:23.292Z,35.91
2023-05-05T18:18:51.085Z,36.04
2023-05-05T18:21:18.599Z,36.40
2023-05-05T18:23:46.131Z,36.48
2023-05-05T18:26:13.828Z,36.59
2023-05-05T18:28:41.580Z,36.55
2023-05-05T18:31:09.085Z,36.79
2023-05-05T18:33:36.788Z,37.07
2023-05-05T18:36:04.682Z,37.31
2023-05-05T18:38:32.721Z,37.50
2023-05-05T18:41:00.414Z,38.25
2023-05-05T18:43:28.108Z,38.61
2023-05-05T18:45:55.585Z,38.80
2023-05-05T18:48:23.337Z,39.29
2023-05-05T18:50:51.422Z,39.72
2023-05-05T18:53:18.779Z,40.30
2023-05-05T18:55:47.166Z,40.65
2023-05-05T18:58:16.715Z,41.08
2023-05-05T19:00:44.151Z,41.36
2023-05-05T19:03:11.808Z,41.69
2023-05-05T19:05:40.606Z,41.90
2023-05-05T19:08:08.039Z,42.14
2023-05-05T19:10:35.873Z,42.24
2023-05-05T19:13:03.407Z,42.81
2023-05-05T19:15:30.846Z,42.91
2023-05-05T19:17:59.200Z,43.24
2023-05-05T19:20:26.616Z,43.36
2023-05-05T19:22:53.959Z,43.56
2023-05-05T19:25:21.743Z,43.72
2023-05-05T19:27:49.425Z,44.17
2023-05-05T19:30:16.847Z,44.24
2023-05-05T19:32:45.248Z,44.34
2023-05-05T19:35:13.086Z,44.54
2023-05-05T19:37:40.838Z,44.76
2023-05-05T19:40:09.112Z,44.89
2023-05-05T19:42:36.941Z,44.97
2023-05-05T19:45:04.809Z,45.18
2023-05-05T19:47:33.324Z,45.28
2023-05-05T19:50:01.007Z,45.60
2023-05-05T19:52:28.462Z,45.40
2023-05-05T19:54:56.213Z,45.72
2023-05-05T19:57:23.838Z,46.02
2023-05-05T19:59:51.392Z,45.99
2023-05-05T20:04:50.456Z,45.55
2023-05-05T20:07:18.582Z,45.55
2023-05-05T20:09:46.425Z,46.55
2023-05-05T20:12:13.921Z,46.96
2023-05-05T20:14:41.565Z,47.21
2023-05-05T20:17:09.009Z,47.41
2023-05-05T20:19:36.437Z,47.29
2023-05-05T20:22:04.424Z,47.63
2023-05-05T20:24:31.778Z,47.61
2023-05-05T20:26:59.169Z,47.64
2023-05-05T20:29:26.824Z,47.39
2023-05-05T20:31:54.232Z,47.43
2023-05-05T20:34:24.045Z,47.54
2023-05-05T20:36:52.503Z,47.60
2023-05-05T20:39:20.024Z,47.75
2023-05-05T20:41:47.524Z,47.74
2023-05-05T20:44:15.599Z,47.97
2023-05-05T20:46:43.115Z,47.98
2023-05-05T20:49:10.823Z,47.84
2023-05-05T20:51:38.563Z,47.80
2023-05-05T20:54:05.951Z,47.79
2023-05-05T20:56:33.355Z,47.97
2023-05-05T20:59:01.026Z,48.04
2023-05-05T21:01:28.599Z,48.12
2023-05-05T21:03:56.081Z,48.06
2023-05-05T21:06:24.385Z,48.14
2023-05-05T21:08:52.030Z,48.27
2023-05-05T21:11:19.393Z,48.50
2023-05-05T21:13:47.025Z,48.69
2023-05-05T21:16:14.408Z,48.87
2023-05-05T21:18:46.500Z,48.82
2023-05-05T21:21:14.263Z,48.86
2023-05-05T21:23:41.639Z,48.94
2023-05-05T21:26:09.017Z,49.11
2023-05-05T21:28:36.686Z,49.40
2023-05-05T21:31:21.088Z,49.43
2023-05-05T21:33:49.535Z,49.52
2023-05-05T21:36:18.959Z,49.57
2023-05-05T21:38:46.445Z,49.74
2023-05-05T21:41:14.157Z,49.67
2023-05-05T21:43:41.506Z,49.54
2023-05-05T21:46:09.013Z,49.71
2023-05-05T21:48:38.843Z,49.87
2023-05-05T21:51:06.765Z,50.04
2023-05-05T21:53:34.612Z,50.13
2023-05-05T21:56:02.276Z,49.91
2023-05-05T21:58:29.656Z,49.77
2023-05-05T22:00:57.124Z,50.08
2023-05-05T22:03:26.105Z,50.16
2023-05-05T22:05:53.724Z,50.42
2023-05-05T22:08:21.263Z,50.75
2023-05-05T22:10:48.977Z,50.97
2023-05-05T22:13:16.532Z,50.97
2023-05-05T22:15:47.258Z,51.03
2023-05-05T22:18:15.712Z,51.12
2023-05-05T22:20:43.948Z,51.07
2023-05-05T22:23:11.388Z,51.07
2023-05-05T22:25:39.097Z,51.11
2023-05-05T22:28:06.466Z,51.22
2023-05-05T22:30:33.933Z,51.22
2023-05-05T22:33:01.667Z,51.28
2023-05-05T22:35:29.210Z,51.34
2023-05-05T22:37:56.756Z,51.55
2023-05-05T22:40:24.610Z,51.72
2023-05-05T22:42:52.890Z,51.79
2023-05-05T22:45:21.764Z,51.89
2023-05-05T22:47:49.892Z,51.68
2023-05-05T22:50:17.370Z,51.79
2023-05-05T22:52:44.849Z,51.96
2023-05-05T22:55:14.529Z,51.92
2023-05-05T22:57:42.273Z,52.30
2023-05-05T23:00:10.709Z,52.41
2023-05-05T23:02:38.948Z,52.53
2023-05-05T23:05:06.664Z,52.40
2023-05-05T23:07:34.094Z,52.57
2023-05-05T23:10:01.856Z,52.61
2023-05-05T23:12:29.359Z,52.70
2023-05-05T23:14:56.753Z,52.86
2023-05-05T23:17:24.469Z,52.91
2023-05-05T23:19:52.147Z,53.07
2023-05-05T23:22:19.540Z,52.93
2023-05-05T23:24:47.178Z,53.13
2023-05-05T23:27:14.584Z,53.06
2023-05-05T23:29:41.942Z,53.10
2023-05-05T23:32:09.597Z,53.11
2023-05-05T23:34:37.066Z,53.11
2023-05-05T23:37:06.185Z,53.16
2023-05-05T23:39:34.681Z,53.33
2023-05-05T23:42:02.114Z,53.38
2023-05-05T23:44:29.736Z,53.32
2023-05-05T23:46:57.420Z,53.38
2023-05-05T23:49:26.328Z,53.38
2023-05-05T23:51:53.736Z,53.43
2023-05-05T23:54:21.424Z,53.62
2023-05-05T23:56:48.788Z,53.39
2023-05-05T23:59:16.189Z,53.73
